Kilgore, Nebraska
Current Conditions -  °F | °C
As of 1:52 PM on Saturday 20 Dec 2014 (Local Time) from KVTN Reporting Station
Clear Clear  
Wind Chill: 37°   Ceiling: Unl
Heat Index: 40°   Visibility: 10mi
Dew Point: 28°   Wind: 5mph
Humidity: 63%   Direction: 260°W
Pressure: 29.89"   Gusts: NA
Location:  42.94°N, 100.96°W
Report Text: KVTN 202052Z AUTO 26004KT 10SM CLR 04/M02 A2989 RMK AO2 SLP150 T00441022 56017
Loading
Personal Weather Stations






























Interactive Weather Map New forecast layout! Learn more

10-Day Weather Forecast

Advertisements
Track Severe Weather on mobile